Time;durP1;ratioP1;P1;durP2;ratioP2;P2;SDS_P1;SDS_P2;PMS_P1;PMS_P2;Temp;Humidity;BMP_temperature;BMP_pressure;BME280_temperature;BME280_humidity;BME280_pressure;Samples;Min_cycle;Max_cycle;Signal;HPM_P1;HPM_P2
2022/12/28 00:01:32;;;;;;;15.45;2.00;;;9.90;99.90;;;;;;5001575;28;20036;-80
2022/12/28 00:04:00;;;;;;;12.90;2.13;;;9.90;99.90;;;;;;5019867;28;20095;-80
2022/12/28 00:06:26;;;;;;;12.68;1.60;;;10.00;99.90;;;;;;5001753;28;20063;-80
2022/12/28 00:08:56;;;;;;;10.13;1.52;;;10.00;99.90;;;;;;5018438;28;20744;-81
2022/12/28 00:11:24;;;;;;;8.60;1.23;;;10.00;99.90;;;;;;5000029;28;20048;-80
2022/12/28 00:13:49;;;;;;;9.00;1.20;;;10.00;99.90;;;;;;5019775;28;20084;-79
2022/12/28 00:16:33;;;;;;;11.07;1.73;;;10.00;99.90;;;;;;5019175;28;20044;-79
2022/12/28 00:19:02;;;;;;;8.55;1.30;;;10.00;99.90;;;;;;5019058;28;20108;-79
2022/12/28 00:21:28;;;;;;;9.05;1.27;;;10.10;99.90;;;;;;5018450;28;20497;-78
2022/12/28 00:23:55;;;;;;;12.68;1.52;;;10.10;99.90;;;;;;5002148;28;20538;-79
2022/12/28 00:26:21;;;;;;;7.25;1.25;;;10.10;99.90;;;;;;5022715;28;20484;-78
2022/12/28 00:28:48;;;;;;;16.60;1.80;;;10.10;99.90;;;;;;5021192;28;20091;-79
2022/12/28 00:31:14;;;;;;;10.77;1.52;;;10.10;99.90;;;;;;5023411;28;20061;-79
2022/12/28 00:33:40;;;;;;;9.93;1.60;;;10.10;99.90;;;;;;5023719;28;20052;-79
2022/12/28 00:36:06;;;;;;;10.88;1.58;;;10.10;99.90;;;;;;5002280;28;20627;-80
2022/12/28 00:38:34;;;;;;;10.82;1.60;;;10.10;99.90;;;;;;5002290;28;20032;-79
2022/12/28 00:41:00;;;;;;;8.90;1.58;;;10.10;99.90;;;;;;5023122;28;20395;-79
2022/12/28 00:43:26;;;;;;;12.02;2.58;;;10.10;99.90;;;;;;5031240;28;20035;-79
2022/12/28 00:45:51;;;;;;;15.90;2.17;;;10.10;99.90;;;;;;5028047;28;20563;-79
2022/12/28 00:48:17;;;;;;;11.75;1.33;;;10.10;99.90;;;;;;4991309;28;20457;-79
2022/12/28 00:50:43;;;;;;;6.95;1.08;;;10.20;99.90;;;;;;5037274;28;20069;-79
2022/12/28 00:53:10;;;;;;;8.00;1.17;;;10.10;99.90;;;;;;5022044;28;20033;-79
2022/12/28 00:55:36;;;;;;;9.75;1.17;;;10.20;99.90;;;;;;5023174;28;20655;-79
2022/12/28 00:58:03;;;;;;;11.57;1.25;;;10.20;99.90;;;;;;5022565;28;20497;-79
2022/12/28 01:00:29;;;;;;;8.23;1.30;;;10.20;99.90;;;;;;5023248;28;20053;-80
2022/12/28 01:02:55;;;;;;;6.72;0.93;;;10.20;99.90;;;;;;5021761;28;20036;-80
2022/12/28 01:05:21;;;;;;;8.52;1.30;;;10.20;99.90;;;;;;5022105;28;20413;-80
2022/12/28 01:07:48;;;;;;;5.55;0.80;;;10.20;99.90;;;;;;5002764;28;20116;-80
2022/12/28 01:10:13;;;;;;;6.03;0.93;;;10.20;99.90;;;;;;5002569;28;20481;-80
2022/12/28 01:12:39;;;;;;;4.38;0.75;;;10.30;99.90;;;;;;5021694;28;20049;-79
2022/12/28 01:15:07;;;;;;;8.07;0.90;;;10.20;99.90;;;;;;5020459;28;20029;-79
2022/12/28 01:17:32;;;;;;;10.98;1.60;;;10.20;99.90;;;;;;5033266;28;20036;-79
2022/12/28 01:19:59;;;;;;;7.43;1.10;;;10.30;99.90;;;;;;5003568;28;20026;-79
2022/12/28 01:22:25;;;;;;;8.20;0.70;;;10.30;99.90;;;;;;5021074;28;20029;-79
2022/12/28 01:24:51;;;;;;;3.30;0.80;;;10.30;99.90;;;;;;5020964;28;20328;-80
2022/12/28 01:27:17;;;;;;;4.53;0.80;;;10.30;99.90;;;;;;5003924;28;20088;-79
2022/12/28 01:29:43;;;;;;;7.15;1.42;;;10.30;99.90;;;;;;5003928;28;20029;-79
2022/12/28 01:32:08;;;;;;;7.53;1.00;;;10.30;99.90;;;;;;5003153;28;20026;-79
2022/12/28 01:34:34;;;;;;;5.65;0.68;;;10.30;99.90;;;;;;5017864;28;20268;-79
2022/12/28 01:36:59;;;;;;;8.68;0.88;;;10.30;99.90;;;;;;5004285;28;20096;-79
2022/12/28 01:39:25;;;;;;;4.93;0.70;;;10.30;99.90;;;;;;5022623;28;20059;-78
2022/12/28 01:41:51;;;;;;;7.05;1.13;;;10.30;99.90;;;;;;5021233;28;20345;-80
2022/12/28 01:44:16;;;;;;;7.55;0.82;;;10.30;99.90;;;;;;5020483;28;20026;-79
2022/12/28 01:46:46;;;;;;;6.03;0.88;;;10.30;99.90;;;;;;5032889;28;20029;-79
2022/12/28 01:50:00;;;;;;;9.50;0.90;;;10.30;99.90;;;;;;5024400;28;20071;-79
2022/12/28 01:52:43;;;;;;;7.80;0.80;;;10.30;99.90;;;;;;4996878;28;20049;-79
2022/12/28 01:55:15;;;;;;;9.80;0.98;;;10.40;99.90;;;;;;5021568;28;20037;-79
2022/12/28 01:57:59;;;;;;;8.00;1.85;;;10.40;99.90;;;;;;5003796;28;20214;-79
2022/12/28 02:00:25;;;;;;;13.82;1.58;;;10.40;99.90;;;;;;5020924;28;20369;-79
2022/12/28 02:02:53;;;;;;;8.13;1.00;;;10.40;99.90;;;;;;5020125;28;20026;-79
2022/12/28 02:05:23;;;;;;;9.68;1.17;;;10.40;99.90;;;;;;5021718;28;20503;-79
2022/12/28 02:08:13;;;;;;;14.13;1.30;;;10.40;99.90;;;;;;5021636;28;20116;-79
2022/12/28 02:10:40;;;;;;;5.55;1.15;;;10.50;99.90;;;;;;4990854;28;20124;-79
2022/12/28 02:13:07;;;;;;;10.73;1.25;;;10.40;99.90;;;;;;5018428;28;20068;-79
2022/12/28 02:15:33;;;;;;;13.13;1.52;;;10.40;99.90;;;;;;5020347;28;20152;-79
2022/12/28 02:17:59;;;;;;;11.63;1.45;;;10.40;99.90;;;;;;5021513;28;20126;-80
2022/12/28 02:20:32;;;;;;;8.40;1.00;;;10.50;99.90;;;;;;5026381;28;20650;-80
2022/12/28 02:23:22;;;;;;;4.57;0.80;;;10.50;99.90;;;;;;5023671;28;20041;-79
2022/12/28 02:26:21;;;;;;;11.00;1.27;;;10.50;99.90;;;;;;5020377;28;20087;-79
2022/12/28 02:29:08;;;;;;;4.68;0.93;;;10.50;99.90;;;;;;5004145;28;20056;-79
2022/12/28 02:31:57;;;;;;;2.92;0.90;;;10.50;99.90;;;;;;5005505;28;20284;-80
2022/12/28 02:34:40;;;;;;;8.80;0.90;;;10.50;99.90;;;;;;5017665;28;20074;-79
2022/12/28 02:37:17;;;;;;;3.42;0.60;;;10.50;99.90;;;;;;5020926;28;20052;-80
2022/12/28 02:39:49;;;;;;;9.50;0.70;;;10.50;99.90;;;;;;5021725;28;20051;-79
2022/12/28 02:42:15;;;;;;;;;;;10.50;99.90;;;;;;5025836;28;20058;-79
2022/12/28 02:50:14;;;;;;;5.78;0.90;;;10.50;99.90;;;;;;5005574;28;20345;-80
2022/12/28 02:53:01;;;;;;;5.30;0.63;;;10.50;99.90;;;;;;5012642;28;20033;-79
2022/12/28 02:58:49;;;;;;;6.57;1.02;;;10.40;99.90;;;;;;5020780;28;20401;-80
2022/12/28 03:01:46;;;;;;;6.78;0.70;;;10.40;99.90;;;;;;5020122;28;20052;-80
2022/12/28 03:04:44;;;;;;;7.07;0.90;;;10.40;99.90;;;;;;5020557;28;20396;-81
2022/12/28 03:10:39;;;;;;;5.78;0.80;;;10.50;99.90;;;;;;5015443;28;20120;-80
2022/12/28 03:13:43;;;;;;;;;;;10.50;99.90;;;;;;5013821;28;20030;-80
2022/12/28 03:16:17;;;;;;;6.43;0.85;;;10.50;99.90;;;;;;4998411;28;19944;-80
2022/12/28 03:32:46;;;;;;;7.32;0.85;;;10.50;99.90;;;;;;5007547;28;20037;-79
2022/12/28 03:35:15;;;;;;;5.95;0.80;;;10.50;99.90;;;;;;5012389;28;20037;-80
2022/12/28 03:37:51;;;;;;;4.53;0.65;;;10.50;99.90;;;;;;4998831;28;20037;-79
2022/12/28 03:40:41;;;;;;;4.88;0.70;;;10.50;99.90;;;;;;4996781;28;20025;-79
2022/12/28 03:46:19;;;;;;;10.05;1.20;;;10.50;99.90;;;;;;5020976;28;20036;-79
2022/12/28 03:48:46;;;;;;;5.38;0.95;;;10.50;99.90;;;;;;5003683;28;20036;-80
2022/12/28 03:51:15;;;;;;;6.70;1.20;;;10.50;99.90;;;;;;5019515;28;20330;-80
2022/12/28 03:53:44;;;;;;;14.65;1.50;;;10.60;99.90;;;;;;5020236;28;20045;-80
2022/12/28 03:56:18;;;;;;;11.90;1.45;;;10.50;99.90;;;;;;5019464;28;20041;-80
2022/12/28 03:58:45;;;;;;;7.45;1.10;;;10.60;99.90;;;;;;5000483;28;20055;-79
2022/12/28 04:01:11;;;;;;;15.18;1.65;;;10.60;99.90;;;;;;4998862;28;20451;-80
2022/12/28 04:03:37;;;;;;;10.57;1.67;;;10.60;99.90;;;;;;4989289;28;20477;-80
2022/12/28 04:06:03;;;;;;;5.93;1.50;;;10.60;99.90;;;;;;5020639;28;20510;-80
2022/12/28 04:08:29;;;;;;;7.97;0.95;;;10.60;99.90;;;;;;5018380;28;20116;-80
2022/12/28 04:10:58;;;;;;;8.60;1.00;;;10.60;99.90;;;;;;5019762;28;20033;-79
2022/12/28 04:13:24;;;;;;;11.50;1.85;;;10.60;99.90;;;;;;5019327;28;20534;-80
2022/12/28 04:16:04;;;;;;;11.23;1.70;;;10.60;99.90;;;;;;5037431;28;20048;-81
2022/12/28 04:18:31;;;;;;;14.45;2.22;;;10.60;99.90;;;;;;5040375;28;20100;-81
2022/12/28 04:20:57;;;;;;;12.43;1.45;;;10.60;99.90;;;;;;5029769;28;20037;-80
2022/12/28 04:23:23;;;;;;;13.45;1.60;;;10.60;99.90;;;;;;5018498;28;20404;-80
2022/12/28 04:25:58;;;;;;;12.90;1.45;;;10.60;99.90;;;;;;5019013;28;20108;-79
2022/12/28 04:28:24;;;;;;;12.45;1.33;;;10.60;99.90;;;;;;5019974;28;20400;-80
2022/12/28 04:30:50;;;;;;;16.83;2.20;;;10.60;99.90;;;;;;5020727;28;20796;-80
2022/12/28 04:33:16;;;;;;;15.88;2.30;;;10.60;99.90;;;;;;5018923;28;20040;-80
2022/12/28 04:35:41;;;;;;;10.40;1.58;;;10.60;99.90;;;;;;5020561;28;20029;-79
2022/12/28 04:38:07;;;;;;;11.32;1.73;;;10.50;99.90;;;;;;5017516;28;20044;-78
2022/12/28 04:40:32;;;;;;;10.07;1.25;;;10.50;99.90;;;;;;5019684;28;20060;-79
2022/12/28 04:42:58;;;;;;;6.00;0.95;;;10.60;99.90;;;;;;5018669;28;20106;-79
2022/12/28 04:45:24;;;;;;;10.13;1.08;;;10.60;99.90;;;;;;5016929;28;20038;-78
2022/12/28 04:47:49;;;;;;;13.65;1.40;;;10.60;99.90;;;;;;5002415;28;20044;-79
2022/12/28 04:50:15;;;;;;;6.88;1.02;;;10.60;99.90;;;;;;4994873;28;20034;-79
2022/12/28 04:52:41;;;;;;;10.38;1.08;;;10.60;99.90;;;;;;5019428;28;20168;-78
2022/12/28 04:55:07;;;;;;;7.80;1.65;;;10.50;99.90;;;;;;5019072;28;20056;-79
2022/12/28 04:57:33;;;;;;;7.70;1.67;;;10.50;99.90;;;;;;4997571;28;20324;-78
2022/12/28 04:59:58;;;;;;;6.18;1.15;;;10.50;99.90;;;;;;5020259;28;20038;-79
2022/12/28 05:02:24;;;;;;;10.68;1.90;;;10.50;99.90;;;;;;5012930;28;20065;-79
2022/12/28 05:04:49;;;;;;;7.93;0.73;;;10.50;99.90;;;;;;4999501;28;20064;-79
2022/12/28 05:07:15;;;;;;;4.57;0.80;;;10.50;99.90;;;;;;5020100;28;20033;-78
2022/12/28 05:09:40;;;;;;;8.70;0.88;;;10.50;99.90;;;;;;5011483;28;20461;-79
2022/12/28 05:12:06;;;;;;;6.93;0.90;;;10.50;99.90;;;;;;5002948;28;20037;-79
2022/12/28 05:14:32;;;;;;;7.75;0.80;;;10.50;99.90;;;;;;5013371;28;20033;-78
2022/12/28 05:16:57;;;;;;;9.70;1.27;;;10.50;99.90;;;;;;5004668;28;20072;-78
2022/12/28 05:19:23;;;;;;;10.65;1.17;;;10.50;99.90;;;;;;5023380;28;20122;-79
2022/12/28 05:21:48;;;;;;;14.30;1.25;;;10.50;99.90;;;;;;5005462;28;20052;-79
2022/12/28 05:24:14;;;;;;;13.27;1.38;;;10.40;99.90;;;;;;5022396;28;20029;-78
2022/12/28 05:26:40;;;;;;;10.93;1.20;;;10.40;99.90;;;;;;5001221;28;20068;-78
2022/12/28 05:29:05;;;;;;;15.10;2.05;;;10.50;99.90;;;;;;5003664;28;20034;-78
2022/12/28 05:31:31;;;;;;;17.73;1.67;;;10.40;99.90;;;;;;5015158;28;20026;-78
2022/12/28 05:33:56;;;;;;;20.88;2.38;;;10.40;99.90;;;;;;5019548;28;20026;-78
2022/12/28 05:36:25;;;;;;;15.18;1.77;;;10.40;99.90;;;;;;5023168;28;20138;-78
2022/12/28 05:38:52;;;;;;;15.05;2.00;;;10.40;99.90;;;;;;5021051;28;20511;-79
2022/12/28 05:41:20;;;;;;;18.20;1.55;;;10.40;99.90;;;;;;5005197;28;20061;-78
2022/12/28 05:43:46;;;;;;;15.63;2.00;;;10.40;99.90;;;;;;5020840;28;20223;-78
2022/12/28 05:46:18;;;;;;;12.98;1.95;;;10.50;99.90;;;;;;5003594;28;20457;-78
2022/12/28 05:48:43;;;;;;;22.77;2.33;;;10.50;99.90;;;;;;5021773;28;20037;-79
2022/12/28 05:51:12;;;;;;;18.63;2.65;;;10.50;99.90;;;;;;5020600;28;20147;-78
2022/12/28 05:53:38;;;;;;;18.55;2.15;;;10.50;99.90;;;;;;5021838;28;20670;-79
2022/12/28 05:56:09;;;;;;;26.40;3.20;;;10.50;99.90;;;;;;5005255;28;20396;-77
2022/12/28 05:58:35;;;;;;;16.98;2.38;;;10.50;99.90;;;;;;5000980;28;20037;-78
2022/12/28 06:01:07;;;;;;;21.23;2.03;;;10.50;99.90;;;;;;5011296;28;20029;-79
2022/12/28 06:03:33;;;;;;;22.17;3.15;;;10.50;99.90;;;;;;5000227;28;20040;-78
2022/12/28 06:06:13;;;;;;;20.50;1.88;;;10.50;99.90;;;;;;5022779;28;20029;-78
2022/12/28 06:08:40;;;;;;;17.10;1.93;;;10.50;99.90;;;;;;5001139;28;20091;-79
2022/12/28 06:11:08;;;;;;;27.15;2.63;;;10.50;99.90;;;;;;5020552;28;20033;-79
2022/12/28 06:13:34;;;;;;;15.82;1.90;;;10.50;99.90;;;;;;5021799;28;20052;-78
2022/12/28 06:16:14;;;;;;;23.25;2.42;;;10.40;99.90;;;;;;5021671;28;20075;-78
2022/12/28 06:18:40;;;;;;;22.13;2.67;;;10.50;99.90;;;;;;5021285;28;20461;-78
2022/12/28 06:21:22;;;;;;;17.90;2.20;;;10.50;99.90;;;;;;5002004;28;20049;-78
2022/12/28 06:23:48;;;;;;;27.90;3.22;;;10.40;99.90;;;;;;5003655;28;20375;-80
2022/12/28 06:26:17;;;;;;;29.88;2.88;;;10.40;99.90;;;;;;5016377;28;20395;-78
2022/12/28 06:28:44;;;;;;;23.83;2.90;;;10.40;99.90;;;;;;5009355;28;20094;-79
2022/12/28 06:31:18;;;;;;;32.22;3.90;;;10.40;99.90;;;;;;5022222;28;20037;-79
2022/12/28 06:33:44;;;;;;;21.20;2.67;;;10.40;99.90;;;;;;5022028;28;20037;-80
2022/12/28 06:36:15;;;;;;;23.35;3.08;;;10.40;99.90;;;;;;5003418;28;20568;-80
2022/12/28 06:38:41;;;;;;;14.35;2.08;;;10.40;99.90;;;;;;5019910;28;20112;-81
2022/12/28 06:41:09;;;;;;;12.48;1.67;;;10.40;99.90;;;;;;5015186;28;20124;-80
2022/12/28 06:43:37;;;;;;;17.38;1.55;;;10.40;99.90;;;;;;5021877;28;20442;-81
2022/12/28 06:46:03;;;;;;;19.33;2.20;;;10.30;99.90;;;;;;5022650;28;20017;-80
2022/12/28 06:48:30;;;;;;;13.43;2.08;;;10.30;99.90;;;;;;5020446;28;20040;-80
2022/12/28 06:50:59;;;;;;;10.25;1.45;;;10.30;99.90;;;;;;5020557;28;20033;-79
2022/12/28 06:53:27;;;;;;;13.85;2.17;;;10.30;99.90;;;;;;5005495;28;20043;-79
2022/12/28 06:55:58;;;;;;;19.67;2.25;;;10.30;99.90;;;;;;5021303;28;20041;-80
2022/12/28 06:58:28;;;;;;;21.45;2.65;;;10.20;99.90;;;;;;5018833;28;20021;-80
2022/12/28 07:00:54;;;;;;;20.13;2.38;;;10.20;99.90;;;;;;5017709;28;20525;-80
2022/12/28 07:03:21;;;;;;;21.27;2.50;;;10.20;99.90;;;;;;5000792;28;20026;-80
2022/12/28 07:05:47;;;;;;;19.55;2.35;;;10.20;99.90;;;;;;5015434;28;20044;-80
2022/12/28 07:08:13;;;;;;;19.05;2.22;;;10.20;99.90;;;;;;5020309;28;20033;-81
2022/12/28 07:10:39;;;;;;;25.60;3.85;;;10.20;99.90;;;;;;5002000;28;20378;-80
2022/12/28 07:13:05;;;;;;;15.63;2.22;;;10.20;99.90;;;;;;5021751;28;20025;-79
2022/12/28 07:15:31;;;;;;;15.88;2.30;;;10.20;99.90;;;;;;5018120;28;20068;-80
2022/12/28 07:17:57;;;;;;;22.40;2.38;;;10.20;99.90;;;;;;5002438;28;20025;-79
2022/12/28 07:20:23;;;;;;;23.70;3.17;;;10.20;99.90;;;;;;5020930;28;20089;-80
2022/12/28 07:22:49;;;;;;;21.13;2.75;;;10.20;99.90;;;;;;5003233;28;20057;-80
2022/12/28 07:25:16;;;;;;;17.60;1.98;;;10.10;99.90;;;;;;5020656;28;20033;-80
2022/12/28 07:27:41;;;;;;;26.38;2.63;;;10.10;99.90;;;;;;5017101;28;20034;-79
2022/12/28 07:30:07;;;;;;;23.23;2.92;;;10.10;99.90;;;;;;5015398;28;20213;-80
2022/12/28 07:32:37;;;;;;;26.30;2.70;;;10.10;99.90;;;;;;5015981;28;20113;-80
2022/12/28 07:35:03;;;;;;;22.65;3.05;;;10.00;99.90;;;;;;5001251;28;20057;-79
2022/12/28 07:37:29;;;;;;;18.27;2.00;;;10.10;99.90;;;;;;5027940;28;20064;-79
2022/12/28 07:39:54;;;;;;;21.00;2.35;;;10.00;99.90;;;;;;5015792;28;20528;-80
2022/12/28 07:42:20;;;;;;;17.38;2.47;;;10.00;99.90;;;;;;5015236;28;20091;-81
2022/12/28 07:44:46;;;;;;;18.02;2.42;;;10.10;99.90;;;;;;5017861;28;20037;-80
2022/12/28 07:47:13;;;;;;;15.82;2.50;;;10.00;99.90;;;;;;5018460;28;20021;-80
2022/12/28 07:49:38;;;;;;;15.48;1.65;;;10.10;99.90;;;;;;5019250;28;20029;-80
2022/12/28 07:52:04;;;;;;;18.17;2.45;;;10.10;99.90;;;;;;4993577;28;20048;-78
2022/12/28 07:54:29;;;;;;;14.38;1.92;;;10.00;99.90;;;;;;4997104;28;20120;-78
2022/12/28 07:56:55;;;;;;;20.67;2.33;;;10.10;99.90;;;;;;4996614;28;20627;-72
2022/12/28 07:59:21;;;;;;;18.05;1.85;;;10.10;99.90;;;;;;5013053;28;20078;-73
2022/12/28 08:01:49;;;;;;;17.40;2.05;;;10.10;99.90;;;;;;5014589;28;20123;-73
2022/12/28 08:04:16;;;;;;;13.07;2.05;;;10.10;99.90;;;;;;5015440;28;20037;-73
2022/12/28 08:06:42;;;;;;;19.73;2.70;;;10.10;99.90;;;;;;4996357;28;20116;-73
2022/12/28 08:09:10;;;;;;;16.20;2.42;;;10.10;99.90;;;;;;5000264;28;20060;-73
2022/12/28 08:11:38;;;;;;;14.32;1.90;;;10.10;99.90;;;;;;5020475;28;20087;-73
2022/12/28 08:14:06;;;;;;;19.52;2.20;;;10.10;99.90;;;;;;5020187;28;20042;-72
2022/12/28 08:16:34;;;;;;;18.67;2.33;;;10.10;99.90;;;;;;5014411;28;20038;-72
2022/12/28 08:19:01;;;;;;;22.58;2.28;;;10.10;99.90;;;;;;5020019;28;20036;-73
2022/12/28 08:21:32;;;;;;;20.48;2.10;;;10.10;99.90;;;;;;4998924;28;20033;-73
2022/12/28 08:23:58;;;;;;;19.13;2.00;;;10.10;99.90;;;;;;5020677;28;20026;-73
2022/12/28 08:26:27;;;;;;;16.17;1.88;;;10.10;99.90;;;;;;5017920;28;20109;-72
2022/12/28 08:28:55;;;;;;;15.57;1.90;;;10.10;99.90;;;;;;5017735;28;20029;-72
2022/12/28 08:31:23;;;;;;;20.90;2.20;;;10.20;99.90;;;;;;5019288;28;20033;-73
2022/12/28 08:33:49;;;;;;;12.65;2.25;;;10.20;99.90;;;;;;5018619;28;20121;-72
2022/12/28 08:36:15;;;;;;;14.35;1.92;;;10.20;99.90;;;;;;5019853;28;21029;-73
2022/12/28 08:38:43;;;;;;;12.80;2.03;;;10.20;99.90;;;;;;5019033;28;20026;-73
2022/12/28 08:41:12;;;;;;;16.77;2.03;;;10.20;99.90;;;;;;5010948;28;20039;-72
2022/12/28 08:43:38;;;;;;;18.00;2.20;;;10.20;99.90;;;;;;5015686;28;20061;-73
2022/12/28 08:46:11;;;;;;;30.52;2.80;;;10.30;99.90;;;;;;5016702;28;20578;-72
2022/12/28 08:48:36;;;;;;;28.20;3.60;;;10.20;99.90;;;;;;5022589;28;20338;-72
2022/12/28 08:51:10;;;;;;;24.42;3.45;;;10.30;99.90;;;;;;5022017;28;20036;-72
2022/12/28 08:53:37;;;;;;;15.18;2.65;;;10.30;99.90;;;;;;5018820;28;20033;-72
2022/12/28 08:56:12;;;;;;;30.52;3.20;;;10.30;99.90;;;;;;5021614;28;20033;-73
2022/12/28 08:58:40;;;;;;;16.92;2.53;;;10.30;99.90;;;;;;5023182;28;20065;-73
2022/12/28 09:01:09;;;;;;;17.95;2.03;;;10.30;99.90;;;;;;5005108;28;20030;-72
2022/12/28 09:03:37;;;;;;;23.05;2.65;;;10.30;99.90;;;;;;5023316;28;20044;-73
2022/12/28 09:06:05;;;;;;;26.48;3.22;;;10.30;99.90;;;;;;5018181;28;20095;-73
2022/12/28 09:08:31;;;;;;;20.65;2.30;;;10.30;99.90;;;;;;5016474;28;20089;-72
2022/12/28 09:11:05;;;;;;;27.27;2.65;;;10.30;99.90;;;;;;5018414;28;20044;-72
2022/12/28 09:13:32;;;;;;;25.50;3.40;;;10.30;99.90;;;;;;5005163;28;20026;-72
2022/12/28 09:16:18;;;;;;;29.65;3.78;;;10.30;99.90;;;;;;5022121;28;20111;-73
2022/12/28 09:18:45;;;;;;;23.95;2.95;;;10.30;99.90;;;;;;4990822;28;20037;-73
2022/12/28 09:21:14;;;;;;;23.13;2.65;;;10.40;99.90;;;;;;5001986;28;20447;-73
2022/12/28 09:23:40;;;;;;;28.90;3.15;;;10.40;99.90;;;;;;5023230;28;20036;-72
2022/12/28 09:26:28;;;;;;;33.70;3.58;;;10.40;99.90;;;;;;5022740;28;20036;-72
2022/12/28 09:28:56;;;;;;;21.17;2.90;;;10.40;99.90;;;;;;5021764;28;20025;-73
2022/12/28 09:31:23;;;;;;;23.33;2.65;;;10.40;99.90;;;;;;5011718;28;20033;-72
2022/12/28 09:33:57;;;;;;;20.50;3.25;;;10.40;99.90;;;;;;5018812;28;20102;-73
2022/12/28 09:36:24;;;;;;;29.40;5.75;;;10.40;99.90;;;;;;5018472;28;20053;-73
2022/12/28 09:38:51;;;;;;;20.23;2.72;;;10.40;99.90;;;;;;4993261;28;20493;-76
2022/12/28 09:41:39;;;;;;;27.33;3.45;;;10.40;99.90;;;;;;4992493;28;20049;-74
2022/12/28 09:44:32;;;;;;;22.00;2.40;;;10.40;99.90;;;;;;5014017;28;20060;-73
2022/12/28 09:47:25;;;;;;;19.95;2.13;;;10.40;99.90;;;;;;5016890;28;20053;-72
2022/12/28 09:50:11;;;;;;;21.60;3.40;;;10.30;99.90;;;;;;5017321;28;20867;-73
2022/12/28 09:53:04;;;;;;;29.00;3.67;;;10.30;99.90;;;;;;5018032;28;20563;-74
2022/12/28 09:55:34;;;;;;;14.18;2.20;;;10.40;99.90;;;;;;5020671;28;20047;-75
2022/12/28 09:58:01;;;;;;;28.88;3.13;;;10.40;99.90;;;;;;5003767;28;20140;-74
2022/12/28 10:00:40;;;;;;;24.88;2.60;;;10.40;99.90;;;;;;5022355;28;20033;-77
2022/12/28 10:03:20;;;;;;;28.83;3.28;;;10.40;99.90;;;;;;5018551;28;20037;-73
2022/12/28 10:05:46;;;;;;;27.40;3.47;;;10.40;99.90;;;;;;5017153;28;20057;-72
2022/12/28 10:08:16;;;;;;;29.42;3.20;;;10.40;99.90;;;;;;5015906;28;20123;-72
2022/12/28 10:10:43;;;;;;;16.60;2.70;;;10.40;99.90;;;;;;5020702;28;20278;-73
2022/12/28 10:13:18;;;;;;;32.85;3.08;;;10.50;99.90;;;;;;5017954;28;20045;-72
2022/12/28 10:15:44;;;;;;;23.90;2.72;;;10.50;99.90;;;;;;5017927;28;20029;-72
2022/12/28 10:18:13;;;;;;;24.13;3.47;;;10.40;99.90;;;;;;5001636;28;20409;-72
2022/12/28 10:20:41;;;;;;;17.27;2.33;;;10.40;99.90;;;;;;5021910;28;20048;-73
2022/12/28 10:23:15;;;;;;;21.95;2.55;;;10.50;99.90;;;;;;5020807;28;20239;-72
2022/12/28 10:25:40;;;;;;;27.33;3.58;;;10.50;99.90;;;;;;5019133;28;20045;-72
2022/12/28 10:28:08;;;;;;;21.77;2.17;;;10.50;99.90;;;;;;5021381;28;20029;-72
2022/12/28 10:31:06;;;;;;;17.65;2.03;;;10.50;99.90;;;;;;5012720;28;20045;-72
2022/12/28 10:33:36;;;;;;;23.17;3.05;;;10.50;99.90;;;;;;5007052;28;20778;-72
2022/12/28 10:36:02;;;;;;;19.70;2.58;;;10.50;99.90;;;;;;5021000;28;20134;-75
2022/12/28 10:38:30;;;;;;;20.58;2.70;;;10.50;99.90;;;;;;5014759;28;20025;-72
2022/12/28 10:41:22;;;;;;;23.25;4.45;;;10.50;99.90;;;;;;5021618;28;20045;-73
2022/12/28 10:43:51;;;;;;;25.10;4.25;;;10.40;99.90;;;;;;5015692;28;20049;-72
2022/12/28 10:46:20;;;;;;;18.15;3.80;;;10.40;99.90;;;;;;5002778;28;20033;-73
2022/12/28 10:48:56;;;;;;;23.63;5.20;;;10.30;99.90;;;;;;5020461;28;20025;-73
2022/12/28 10:51:23;;;;;;;16.00;2.83;;;10.40;99.90;;;;;;5016299;28;20456;-73
2022/12/28 10:53:57;;;;;;;20.50;3.42;;;10.40;99.90;;;;;;5013759;28;20067;-73
2022/12/28 10:56:42;;;;;;;17.00;2.78;;;10.40;99.90;;;;;;5014474;28;20179;-73
2022/12/28 10:59:13;;;;;;;19.23;2.25;;;10.30;99.90;;;;;;5015304;28;20113;-73
2022/12/28 11:01:41;;;;;;;22.15;2.80;;;10.30;99.90;;;;;;4993797;28;20033;-73
2022/12/28 11:04:23;;;;;;;22.88;2.35;;;10.30;99.90;;;;;;5010154;28;20038;-72
2022/12/28 11:06:59;;;;;;;22.65;2.47;;;10.20;99.90;;;;;;5010599;28;20086;-72
2022/12/28 11:09:30;;;;;;;29.60;3.08;;;10.20;99.90;;;;;;5018366;28;20028;-73
2022/12/28 11:12:23;;;;;;;21.15;2.60;;;10.10;99.90;;;;;;5022308;28;20483;-73
2022/12/28 11:14:49;;;;;;;12.90;2.70;;;10.10;99.90;;;;;;5018602;28;20025;-76
2022/12/28 11:17:25;;;;;;;20.80;2.30;;;10.10;99.90;;;;;;4994559;28;20045;-72
2022/12/28 11:19:54;;;;;;;24.05;3.08;;;10.10;99.90;;;;;;5018942;28;20088;-73
2022/12/28 11:22:24;;;;;;;18.80;2.75;;;10.10;99.90;;;;;;5017862;28;20086;-74
2022/12/28 11:24:50;;;;;;;26.13;4.38;;;10.10;99.90;;;;;;5019889;28;20048;-73
2022/12/28 11:27:19;;;;;;;22.73;3.08;;;10.10;99.90;;;;;;5019326;28;20037;-73
2022/12/28 11:29:47;;;;;;;26.52;4.00;;;10.10;99.90;;;;;;5020643;28;20049;-73
2022/12/28 11:32:26;;;;;;;14.32;2.47;;;10.10;99.90;;;;;;5014574;28;20060;-73
2022/12/28 11:34:54;;;;;;;18.13;2.83;;;10.10;99.90;;;;;;5013616;28;20626;-73
2022/12/28 11:37:20;;;;;;;16.17;3.03;;;10.10;99.90;;;;;;5017426;28;20429;-74
2022/12/28 11:39:47;;;;;;;18.58;3.08;;;10.10;99.90;;;;;;5015132;28;20190;-74
2022/12/28 11:42:31;;;;;;;15.38;2.70;;;10.10;99.90;;;;;;5016435;28;20042;-74
2022/12/28 11:44:58;;;;;;;24.45;3.00;;;10.10;99.90;;;;;;5013271;28;20104;-74
2022/12/28 11:47:35;;;;;;;18.25;3.33;;;10.00;99.90;;;;;;5020285;28;20033;-73
2022/12/28 11:50:37;;;;;;;20.08;2.88;;;10.00;99.90;;;;;;5001509;28;20595;-73
2022/12/28 11:53:19;;;;;;;26.27;2.38;;;10.00;99.90;;;;;;5019945;28;20121;-74
2022/12/28 11:56:08;;;;;;;21.60;3.92;;;10.00;99.90;;;;;;5000969;28;20042;-74
2022/12/28 11:58:46;;;;;;;17.55;2.65;;;10.00;99.90;;;;;;5019386;28;20164;-74
2022/12/28 12:01:28;;;;;;;20.88;4.05;;;10.00;99.90;;;;;;5001217;28;20029;-74
2022/12/28 12:03:56;;;;;;;26.23;3.95;;;10.00;99.90;;;;;;5014558;28;20108;-75
2022/12/28 12:06:41;;;;;;;23.85;3.58;;;10.00;99.90;;;;;;5016943;28;20120;-74
2022/12/28 12:09:24;;;;;;;28.77;3.00;;;10.00;99.90;;;;;;5014008;28;20652;-74
2022/12/28 12:11:55;;;;;;;27.80;3.33;;;10.00;99.90;;;;;;5014903;28;20034;-75
2022/12/28 12:14:30;;;;;;;23.73;2.90;;;10.10;99.90;;;;;;5021105;28;20026;-74
2022/12/28 12:17:02;;;;;;;25.67;2.90;;;10.10;99.90;;;;;;5002615;28;20041;-83
2022/12/28 12:19:29;;;;;;;;;;;10.10;99.90;;;;;;4999489;28;20163;-74
2022/12/28 12:22:20;;;;;;;24.48;3.58;;;10.20;99.90;;;;;;4999092;28;20020;-74
2022/12/28 12:25:03;;;;;;;20.58;2.72;;;10.10;99.90;;;;;;5009377;28;20026;-74
2022/12/28 12:27:31;;;;;;;25.10;3.63;;;10.10;99.90;;;;;;5022907;28;20365;-75
2022/12/28 12:30:03;;;;;;;15.45;2.80;;;10.20;99.90;;;;;;5021392;28;20127;-74
2022/12/28 12:32:50;;;;;;;20.05;2.45;;;10.20;99.90;;;;;;5004991;28;20029;-76
2022/12/28 12:35:20;;;;;;;19.58;2.70;;;10.20;99.90;;;;;;5019237;28;20041;-74
2022/12/28 12:37:48;;;;;;;21.65;2.78;;;10.20;99.90;;;;;;5012288;28;20033;-73
2022/12/28 12:40:38;;;;;;;18.50;2.90;;;10.20;99.90;;;;;;5022991;28;20051;-74
2022/12/28 12:43:12;;;;;;;20.30;2.63;;;10.20;99.90;;;;;;5022383;28;20045;-74
2022/12/28 12:46:05;;;;;;;19.60;2.53;;;10.20;99.90;;;;;;5019401;28;20033;-74
2022/12/28 12:48:52;;;;;;;22.75;3.33;;;10.10;99.90;;;;;;5021197;28;22051;-73
2022/12/28 12:51:51;;;;;;;26.45;4.15;;;10.10;99.90;;;;;;4995595;28;20033;-73
2022/12/28 12:54:30;;;;;;;20.65;3.42;;;10.20;99.90;;;;;;5019393;28;20477;-74
2022/12/28 12:57:04;;;;;;;17.67;3.67;;;10.20;99.90;;;;;;5010246;28;20536;-73
2022/12/28 13:00:02;;;;;;;18.08;3.15;;;10.20;99.90;;;;;;5016790;28;20043;-73
2022/12/28 13:02:54;;;;;;;25.67;4.13;;;10.20;99.90;;;;;;5022018;28;20179;-74
2022/12/28 13:05:23;;;;;;;17.73;2.80;;;10.20;99.90;;;;;;5020880;28;20462;-73
2022/12/28 13:07:49;;;;;;;13.30;2.35;;;10.30;99.90;;;;;;5003842;28;20561;-73
2022/12/28 13:10:29;;;;;;;10.80;2.38;;;10.30;99.90;;;;;;5022182;28;20156;-73
2022/12/28 13:12:57;;;;;;;18.70;2.42;;;10.30;99.90;;;;;;5024138;28;20026;-73
2022/12/28 13:15:23;;;;;;;18.35;3.03;;;10.20;99.90;;;;;;5002032;28;20083;-74
2022/12/28 13:18:04;;;;;;;29.35;3.40;;;10.20;99.90;;;;;;5020479;28;20041;-73
2022/12/28 13:20:30;;;;;;;13.98;2.45;;;10.30;99.90;;;;;;5014976;28;20239;-73
2022/12/28 13:22:56;;;;;;;15.50;2.88;;;10.30;99.90;;;;;;5018367;28;20033;-73
2022/12/28 13:25:25;;;;;;;17.77;2.97;;;10.20;99.90;;;;;;5021096;28;20116;-73
2022/12/28 13:27:51;;;;;;;13.57;2.47;;;10.30;99.90;;;;;;5029478;28;20366;-73
2022/12/28 13:30:19;;;;;;;19.75;2.88;;;10.30;99.90;;;;;;5018522;28;20098;-79